createdAt,value
2019-03-01T00:03:46.978Z,94.70
2019-03-01T00:09:24.182Z,94.70
2019-03-01T00:14:49.508Z,94.80
2019-03-01T00:20:26.115Z,94.90
2019-03-01T00:25:51.570Z,94.90
2019-03-01T00:31:07.817Z,94.90
2019-03-01T00:36:43.714Z,95.00
2019-03-01T00:42:23.914Z,95.10
2019-03-01T00:47:25.337Z,95.10
2019-03-01T00:52:26.662Z,95.10
2019-03-01T00:57:27.908Z,95.30
2019-03-01T01:02:29.250Z,95.30
2019-03-01T01:07:30.582Z,95.50
2019-03-01T01:12:31.914Z,95.50
2019-03-01T01:17:33.226Z,95.40
2019-03-01T01:22:34.510Z,95.60
2019-03-01T01:27:37.040Z,95.50
2019-03-01T01:32:38.351Z,95.60
2019-03-01T01:37:39.640Z,95.60
2019-03-01T01:42:41.043Z,95.70
2019-03-01T01:47:42.370Z,95.70
2019-03-01T01:52:45.649Z,95.70
2019-03-01T01:57:47.120Z,95.70
2019-03-01T02:02:48.494Z,95.80
2019-03-01T02:07:50.120Z,96.00
2019-03-01T02:12:51.619Z,95.90
2019-03-01T02:17:53.042Z,95.90
2019-03-01T02:22:54.559Z,95.90
2019-03-01T02:27:56.144Z,95.90
2019-03-01T02:32:57.439Z,95.90
2019-03-01T02:37:58.879Z,95.80
2019-03-01T02:43:00.300Z,95.70
2019-03-01T02:48:01.644Z,95.60
2019-03-01T02:53:03.133Z,95.50
2019-03-01T02:58:04.733Z,95.60
2019-03-01T03:03:06.140Z,95.50
2019-03-01T03:08:09.490Z,95.30
2019-03-01T03:13:10.788Z,95.30
2019-03-01T03:18:12.258Z,95.40
2019-03-01T03:23:13.584Z,95.30
2019-03-01T03:28:16.117Z,95.50
2019-03-01T03:33:17.615Z,95.50
2019-03-01T03:38:18.953Z,95.50
2019-03-01T03:43:22.730Z,95.50
2019-03-01T03:48:23.571Z,95.50
2019-03-01T03:53:24.949Z,95.40
2019-03-01T03:58:26.359Z,95.40
2019-03-01T04:03:28.171Z,95.50
2019-03-01T04:08:29.727Z,95.40
2019-03-01T04:13:31.316Z,95.50
2019-03-01T04:18:32.827Z,95.50
2019-03-01T04:23:34.195Z,95.60
2019-03-01T04:28:35.744Z,95.60
2019-03-01T04:33:37.098Z,95.70
2019-03-01T04:38:38.385Z,95.80
2019-03-01T04:43:39.811Z,95.80
2019-03-01T04:48:41.220Z,95.80
2019-03-01T04:53:42.551Z,95.90
2019-03-01T04:58:43.904Z,96.00
2019-03-01T05:03:45.316Z,96.00
2019-03-01T05:08:46.610Z,96.00
2019-03-01T05:13:47.930Z,96.00
2019-03-01T05:18:49.212Z,96.00
2019-03-01T05:23:50.635Z,96.00
2019-03-01T05:28:51.932Z,96.00
2019-03-01T05:33:55.432Z,96.00
2019-03-01T05:38:58.518Z,95.90
2019-03-01T05:43:59.824Z,95.90
2019-03-01T05:49:01.481Z,95.90
2019-03-01T05:54:02.899Z,95.90
2019-03-01T05:59:13.116Z,96.00
2019-03-01T06:04:20.103Z,96.00
2019-03-01T06:09:42.226Z,95.90
2019-03-01T06:14:52.243Z,96.00
2019-03-01T06:20:25.003Z,96.00
2019-03-01T06:25:56.330Z,95.90
2019-03-01T06:31:29.439Z,96.00
2019-03-01T06:36:45.404Z,96.00
2019-03-01T06:41:58.193Z,96.10
2019-03-01T06:47:25.011Z,96.10
2019-03-01T06:52:26.404Z,96.30
2019-03-01T06:57:27.849Z,96.30
2019-03-01T07:02:31.465Z,96.30
2019-03-01T07:07:32.759Z,96.30
2019-03-01T07:12:34.100Z,96.30
2019-03-01T07:17:35.562Z,96.30
2019-03-01T07:22:37.029Z,96.30
2019-03-01T07:27:38.349Z,96.20
2019-03-01T07:32:39.710Z,96.30
2019-03-01T07:37:41.430Z,96.30
2019-03-01T07:42:42.980Z,96.30
2019-03-01T07:47:44.360Z,96.20
2019-03-01T07:52:47.698Z,96.20
2019-03-01T07:57:49.761Z,96.30
2019-03-01T08:02:54.946Z,96.20
2019-03-01T08:07:59.658Z,96.30
2019-03-01T08:12:59.461Z,96.20
2019-03-01T08:18:04.748Z,96.20
2019-03-01T08:23:04.276Z,96.30
2019-03-01T08:28:05.680Z,96.20
2019-03-01T08:33:07.958Z,96.20
2019-03-01T08:38:09.435Z,96.20
2019-03-01T08:43:12.962Z,96.20
2019-03-01T08:48:14.150Z,96.30
2019-03-01T08:53:16.129Z,96.30
2019-03-01T08:58:18.098Z,96.30
2019-03-01T09:03:46.632Z,96.10
2019-03-01T09:08:48.106Z,96.00
2019-03-01T09:13:50.314Z,95.80
2019-03-01T09:18:51.620Z,95.80
2019-03-01T09:23:55.022Z,95.90
2019-03-01T09:28:56.334Z,95.90
2019-03-01T09:33:57.698Z,95.80
2019-03-01T09:39:00.001Z,95.70
2019-03-01T09:44:03.082Z,95.70
2019-03-01T09:49:04.804Z,95.60
2019-03-01T09:54:06.500Z,95.60
2019-03-01T09:59:09.782Z,95.20
2019-03-01T10:04:11.194Z,95.20
2019-03-01T10:09:12.659Z,95.20
2019-03-01T10:14:14.177Z,95.10
2019-03-01T10:19:15.518Z,95.10
2019-03-01T10:24:16.967Z,94.90
2019-03-01T10:29:18.293Z,94.80
2019-03-01T10:34:20.057Z,94.90
2019-03-01T10:39:21.426Z,94.90
2019-03-01T10:44:23.061Z,94.90
2019-03-01T10:49:24.380Z,94.80
2019-03-01T10:54:26.708Z,94.90
2019-03-01T10:59:46.647Z,94.90
2019-03-01T11:04:49.567Z,95.10
2019-03-01T11:09:50.859Z,94.70
2019-03-01T11:14:52.277Z,94.60
2019-03-01T11:19:53.665Z,94.30
2019-03-01T11:24:55.198Z,93.50
2019-03-01T11:29:56.484Z,93.40
2019-03-01T11:34:58.079Z,93.00
2019-03-01T11:39:59.857Z,93.00
2019-03-01T11:45:01.185Z,92.60
2019-03-01T11:50:10.759Z,92.20
2019-03-01T11:55:12.722Z,91.70
2019-03-01T12:00:24.503Z,91.30
2019-03-01T12:05:26.173Z,91.50
2019-03-01T12:10:30.375Z,91.30
2019-03-01T12:15:32.014Z,91.30
2019-03-01T12:20:52.036Z,91.20
2019-03-01T12:25:53.716Z,90.90
2019-03-01T12:30:55.046Z,90.60
2019-03-01T12:35:57.073Z,90.00
2019-03-01T12:40:58.630Z,90.20
2019-03-01T12:46:00.000Z,90.30
2019-03-01T12:51:01.342Z,88.90
2019-03-01T12:56:02.935Z,88.50
2019-03-01T13:01:04.469Z,86.10
2019-03-01T13:06:06.881Z,86.10
2019-03-01T13:11:08.263Z,86.50
2019-03-01T13:16:09.815Z,86.10
2019-03-01T13:21:12.952Z,85.80
2019-03-01T13:26:16.027Z,86.00
2019-03-01T13:31:17.514Z,86.10
2019-03-01T13:36:18.804Z,86.10
2019-03-01T13:41:20.144Z,85.00
2019-03-01T13:46:26.391Z,84.10
2019-03-01T13:51:27.011Z,83.70
2019-03-01T13:56:47.058Z,83.40
2019-03-01T14:01:48.530Z,83.60
2019-03-01T14:06:50.107Z,83.10
2019-03-01T14:11:51.629Z,83.50
2019-03-01T14:16:53.048Z,83.50
2019-03-01T14:21:54.512Z,83.80
2019-03-01T14:26:56.144Z,83.00
2019-03-01T14:31:57.489Z,83.00
2019-03-01T14:37:00.317Z,83.20
2019-03-01T14:42:01.859Z,83.50
2019-03-01T14:47:03.633Z,83.50
2019-03-01T14:52:05.006Z,83.50
2019-03-01T15:02:51.383Z,84.10
2019-03-01T15:07:53.282Z,84.30
2019-03-01T15:12:57.967Z,84.30
2019-03-01T15:17:58.504Z,84.00
2019-03-01T15:22:59.933Z,83.80
2019-03-01T15:28:02.778Z,84.10
2019-03-01T15:33:04.279Z,83.80
2019-03-01T15:38:05.738Z,83.70
2019-03-01T15:43:09.168Z,83.20
2019-03-01T15:48:10.605Z,83.30
2019-03-01T15:53:11.971Z,83.40
2019-03-01T15:58:14.224Z,83.10
2019-03-01T16:03:15.604Z,82.80
2019-03-01T16:08:17.177Z,82.80
2019-03-01T16:13:18.522Z,83.20
2019-03-01T16:18:19.895Z,83.50
2019-03-01T16:23:21.192Z,84.10
2019-03-01T16:28:22.714Z,83.10
2019-03-01T16:33:25.953Z,83.20
2019-03-01T16:38:27.897Z,83.50
2019-03-01T16:43:29.653Z,83.30
2019-03-01T16:48:31.346Z,83.20
2019-03-01T16:53:32.632Z,83.30
2019-03-01T16:58:34.680Z,83.20
2019-03-01T17:03:36.283Z,83.30
2019-03-01T17:08:39.673Z,84.30
2019-03-01T17:13:41.309Z,83.40
2019-03-01T17:18:44.675Z,83.80
2019-03-01T17:23:45.947Z,84.00
2019-03-01T17:28:47.249Z,84.10
2019-03-01T17:33:48.758Z,84.40
2019-03-01T17:38:51.328Z,84.60
2019-03-01T17:43:52.650Z,84.90
2019-03-01T17:48:57.063Z,85.00
2019-03-01T17:53:57.725Z,85.20
2019-03-01T17:58:59.216Z,85.40
2019-03-01T18:04:01.690Z,85.50
2019-03-01T18:09:05.278Z,85.80
2019-03-01T18:14:06.854Z,85.90
2019-03-01T18:19:09.355Z,86.00
2019-03-01T18:24:11.076Z,86.30
2019-03-01T18:29:16.403Z,86.30
2019-03-01T18:34:18.125Z,86.80
2019-03-01T18:39:20.288Z,86.80
2019-03-01T18:44:22.410Z,86.80
2019-03-01T18:49:24.959Z,86.80
2019-03-01T18:54:26.883Z,86.90
2019-03-01T18:59:28.335Z,87.00
2019-03-01T19:04:30.051Z,87.70
2019-03-01T19:09:31.790Z,87.80
2019-03-01T19:14:35.511Z,88.30
2019-03-01T19:19:36.699Z,88.30
2019-03-01T19:24:43.002Z,88.30
2019-03-01T19:29:42.695Z,88.50
2019-03-01T19:34:44.030Z,88.90
2019-03-01T19:39:45.479Z,89.10
2019-03-01T19:44:46.901Z,89.50
2019-03-01T19:49:49.826Z,90.00
2019-03-01T19:54:51.619Z,90.10
2019-03-01T19:59:54.548Z,90.20
2019-03-01T20:05:01.898Z,90.30
2019-03-01T20:10:11.581Z,90.30
2019-03-01T20:15:33.305Z,90.50
2019-03-01T20:20:35.852Z,90.60
2019-03-01T20:25:37.319Z,90.60
2019-03-01T20:30:39.378Z,90.80
2019-03-01T20:35:40.859Z,90.90
2019-03-01T20:40:42.276Z,91.00
2019-03-01T20:45:43.914Z,91.00
2019-03-01T20:50:47.682Z,91.10
2019-03-01T20:55:51.044Z,91.20
2019-03-01T21:00:53.204Z,91.20
2019-03-01T21:05:54.658Z,91.10
2019-03-01T21:10:56.154Z,91.10
2019-03-01T21:15:59.688Z,91.30
2019-03-01T21:21:19.575Z,91.40
2019-03-01T21:26:20.856Z,91.30
2019-03-01T21:31:22.207Z,91.30
2019-03-01T21:36:26.284Z,91.20
2019-03-01T21:41:26.784Z,91.20
2019-03-01T21:46:30.484Z,91.30
2019-03-01T21:51:31.807Z,91.30
2019-03-01T21:56:35.575Z,91.30
2019-03-01T22:01:41.205Z,91.40
2019-03-01T22:06:40.808Z,91.50
2019-03-01T22:11:42.274Z,91.60
2019-03-01T22:16:43.926Z,91.70
2019-03-01T22:21:45.451Z,91.80
2019-03-01T22:26:50.341Z,91.90
2019-03-01T22:31:51.864Z,92.10
2019-03-01T22:36:53.842Z,92.20
2019-03-01T22:41:55.356Z,92.10
2019-03-01T22:46:57.932Z,92.10
2019-03-01T22:52:01.574Z,92.10
2019-03-01T22:57:02.900Z,92.20
2019-03-01T23:02:08.041Z,92.30
2019-03-01T23:07:27.835Z,92.40
2019-03-01T23:12:29.142Z,92.60
2019-03-01T23:17:31.227Z,92.70
2019-03-01T23:22:32.582Z,92.80
2019-03-01T23:27:33.902Z,92.70
2019-03-01T23:32:37.266Z,92.70
2019-03-01T23:37:38.887Z,92.80
2019-03-01T23:42:41.090Z,92.80
2019-03-01T23:47:42.440Z,92.90
2019-03-01T23:52:46.098Z,92.90
2019-03-01T23:57:49.388Z,93.00
